createdAt,value
2023-02-01T00:00:47.148Z,7.27
2023-02-01T00:05:59.317Z,9.30
2023-02-01T00:11:03.460Z,7.47
2023-02-01T00:16:08.173Z,7.53
2023-02-01T00:21:14.878Z,5.73
2023-02-01T00:26:20.842Z,6.13
2023-02-01T00:31:24.295Z,5.87
2023-02-01T00:36:29.479Z,4.97
2023-02-01T00:41:32.927Z,6.23
2023-02-01T00:46:36.395Z,5.27
2023-02-01T00:51:41.212Z,4.93
2023-02-01T00:56:44.583Z,5.43
2023-02-01T01:01:47.994Z,4.13
2023-02-01T01:06:52.860Z,5.40
2023-02-01T01:11:56.337Z,2.33
2023-02-01T01:16:59.769Z,3.30
2023-02-01T01:22:04.868Z,5.87
2023-02-01T01:27:08.361Z,6.03
2023-02-01T01:32:11.817Z,7.13
2023-02-01T01:37:16.768Z,5.53
2023-02-01T01:42:20.147Z,5.37
2023-02-01T01:47:23.657Z,3.57
2023-02-01T01:52:28.728Z,4.33
2023-02-01T01:57:36.824Z,3.53
2023-02-01T02:02:42.958Z,6.47
2023-02-01T02:07:50.698Z,4.33
2023-02-01T02:12:54.080Z,3.97
2023-02-01T02:18:03.440Z,3.93
2023-02-01T02:23:35.690Z,3.20
2023-02-01T02:29:11.892Z,5.07
2023-02-01T02:34:24.121Z,3.60
2023-02-01T02:39:39.638Z,4.37
2023-02-01T02:45:07.385Z,3.83
2023-02-01T02:50:43.192Z,3.30
2023-02-01T02:55:47.779Z,6.10
2023-02-01T03:01:09.701Z,6.57
2023-02-01T03:06:18.936Z,4.03
2023-02-01T03:11:23.243Z,4.33
2023-02-01T03:16:28.976Z,4.30
2023-02-01T03:21:39.898Z,4.43
2023-02-01T03:26:48.334Z,3.53
2023-02-01T03:31:52.087Z,4.30
2023-02-01T03:37:02.789Z,4.37
2023-02-01T03:42:11.763Z,3.27
2023-02-01T03:47:21.261Z,4.37
2023-02-01T03:52:30.749Z,3.60
2023-02-01T03:57:39.795Z,4.40
2023-02-01T04:02:43.464Z,3.30
2023-02-01T04:07:48.424Z,3.13
2023-02-01T04:12:51.984Z,5.03
2023-02-01T04:17:55.495Z,5.77
2023-02-01T04:23:00.838Z,3.70
2023-02-01T04:28:04.362Z,3.30
2023-02-01T04:33:07.842Z,3.10
2023-02-01T04:38:13.131Z,3.23
2023-02-01T04:43:16.777Z,3.87
2023-02-01T04:48:23.938Z,4.70
2023-02-01T04:53:30.953Z,5.07
2023-02-01T04:58:34.538Z,4.37
2023-02-01T05:03:38.395Z,4.50
2023-02-01T05:08:43.443Z,3.67
2023-02-01T05:13:52.979Z,4.77
2023-02-01T05:18:57.067Z,3.13
2023-02-01T05:24:18.505Z,3.47
2023-02-01T05:29:22.226Z,4.03
2023-02-01T05:34:25.831Z,4.90
2023-02-01T05:39:31.023Z,3.10
2023-02-01T05:44:34.666Z,3.13
2023-02-01T05:49:38.237Z,6.40
2023-02-01T05:54:43.292Z,3.50
2023-02-01T05:59:46.931Z,3.70
2023-02-01T06:04:50.429Z,3.80
2023-02-01T06:09:55.389Z,5.70
2023-02-01T06:14:59.863Z,4.47
2023-02-01T06:20:03.427Z,5.30
2023-02-01T06:25:10.340Z,4.30
2023-02-01T06:30:14.793Z,5.03
2023-02-01T06:35:18.395Z,6.47
2023-02-01T06:40:23.761Z,6.77
2023-02-01T06:45:27.519Z,4.23
2023-02-01T06:50:31.009Z,4.60
2023-02-01T06:55:36.049Z,9.13
2023-02-01T07:00:39.567Z,8.50
2023-02-01T07:05:43.082Z,7.20
2023-02-01T07:10:48.063Z,5.97
2023-02-01T07:15:51.879Z,6.10
2023-02-01T07:20:55.556Z,6.93
2023-02-01T07:26:02.311Z,7.53
2023-02-01T07:31:06.460Z,5.50
2023-02-01T07:36:13.564Z,5.53
2023-02-01T07:41:18.683Z,6.83
2023-02-01T07:46:22.435Z,5.60
2023-02-01T07:51:26.040Z,5.57
2023-02-01T07:56:31.075Z,8.20
2023-02-01T08:01:34.727Z,6.90
2023-02-01T08:06:38.321Z,6.03
2023-02-01T08:11:43.221Z,7.47
2023-02-01T08:16:46.844Z,5.83
2023-02-01T08:21:50.994Z,5.90
2023-02-01T08:26:55.889Z,5.30
2023-02-01T08:31:59.342Z,5.80
2023-02-01T08:37:03.112Z,6.37
2023-02-01T08:42:21.786Z,8.93
2023-02-01T08:47:25.276Z,8.93
2023-02-01T08:52:28.952Z,7.07
2023-02-01T08:57:33.768Z,7.20
2023-02-01T09:02:37.194Z,7.17
2023-02-01T09:07:40.977Z,8.93
2023-02-01T09:12:45.853Z,10.43
2023-02-01T09:17:53.006Z,8.57
2023-02-01T09:22:58.053Z,10.70
2023-02-01T09:28:02.852Z,5.33
2023-02-01T09:33:07.185Z,6.03
2023-02-01T09:38:10.616Z,8.10
2023-02-01T09:43:28.016Z,9.27
2023-02-01T09:48:36.415Z,8.10
2023-02-01T09:53:44.371Z,7.43
2023-02-01T09:58:54.359Z,8.07
2023-02-01T10:04:04.787Z,10.97
2023-02-01T10:09:31.925Z,6.50
2023-02-01T10:14:57.344Z,8.07
2023-02-01T10:20:10.196Z,5.83
2023-02-01T10:25:24.060Z,5.17
2023-02-01T10:30:35.748Z,5.70
2023-02-01T10:35:39.938Z,5.07
2023-02-01T10:40:43.709Z,5.97
2023-02-01T10:45:48.704Z,5.47
2023-02-01T10:50:57.311Z,5.90
2023-02-01T10:56:07.690Z,7.30
2023-02-01T11:01:19.164Z,6.83
2023-02-01T11:06:29.308Z,6.37
2023-02-01T11:11:32.848Z,8.00
2023-02-01T11:16:40.172Z,7.90
2023-02-01T11:21:46.632Z,8.43
2023-02-01T11:26:50.265Z,6.83
2023-02-01T11:31:57.845Z,7.07
2023-02-01T11:37:13.825Z,6.93
2023-02-01T11:42:18.214Z,7.07
2023-02-01T11:47:26.817Z,9.40
2023-02-01T11:52:46.590Z,8.97
2023-02-01T11:58:03.631Z,8.20
2023-02-01T12:03:36.107Z,8.20
2023-02-01T12:09:05.139Z,6.63
2023-02-01T12:14:25.372Z,8.23
2023-02-01T12:19:58.962Z,8.23
2023-02-01T12:25:26.832Z,10.60
2023-02-01T12:30:52.703Z,10.70
2023-02-01T12:36:12.649Z,8.57
2023-02-01T12:41:36.824Z,8.37
2023-02-01T12:46:45.795Z,7.63
2023-02-01T12:51:53.177Z,11.13
2023-02-01T12:57:01.622Z,7.77
2023-02-01T13:02:16.886Z,7.40
2023-02-01T13:07:26.554Z,6.23
2023-02-01T13:12:37.417Z,5.33
2023-02-01T13:17:42.647Z,6.80
2023-02-01T13:22:52.154Z,4.93
2023-02-01T13:27:57.976Z,4.37
2023-02-01T13:33:53.194Z,8.33
2023-02-01T13:39:22.669Z,2.40
2023-02-01T13:44:31.088Z,1.40
2023-02-01T13:49:40.500Z,1.80
2023-02-01T13:54:45.325Z,0.77
2023-02-01T13:59:55.983Z,3.13
2023-02-01T14:04:59.349Z,0.40
2023-02-01T14:10:49.297Z,0.70
2023-02-01T14:16:14.856Z,0.60
2023-02-01T14:21:23.455Z,0.37
2023-02-01T14:26:43.809Z,1.10
2023-02-01T14:31:57.137Z,1.27
2023-02-01T14:37:03.166Z,0.70
2023-02-01T14:42:24.670Z,0.23
2023-02-01T14:47:34.145Z,0.67
2023-02-01T14:52:43.572Z,0.70
2023-02-01T14:57:51.974Z,2.70
2023-02-01T15:02:58.591Z,1.80
2023-02-01T15:08:08.965Z,0.93
2023-02-01T15:13:24.550Z,1.37
2023-02-01T15:18:28.068Z,0.40
2023-02-01T15:23:32.238Z,2.43
2023-02-01T15:28:37.536Z,1.57
2023-02-01T15:33:41.000Z,3.20
2023-02-01T15:38:45.358Z,9.77
2023-02-01T15:44:05.095Z,0.93
2023-02-01T15:49:21.932Z,2.10
2023-02-01T15:54:29.056Z,1.07
2023-02-01T15:59:38.392Z,0.60
2023-02-01T16:04:52.002Z,0.50
2023-02-01T16:09:57.965Z,2.03
2023-02-01T16:15:03.087Z,1.47
2023-02-01T16:20:07.419Z,1.57
2023-02-01T16:25:11.137Z,3.67
2023-02-01T16:30:16.689Z,1.90
2023-02-01T16:35:26.052Z,0.90
2023-02-01T16:40:29.943Z,0.40
2023-02-01T16:45:35.882Z,0.27
2023-02-01T16:50:39.446Z,0.63
2023-02-01T16:55:44.968Z,0.70
2023-02-01T17:00:52.356Z,0.90
2023-02-01T17:05:58.326Z,0.50
2023-02-01T17:11:02.802Z,1.63
2023-02-01T17:16:18.715Z,0.40
2023-02-01T17:21:22.707Z,0.60
2023-02-01T17:26:26.887Z,0.50
2023-02-01T17:31:34.462Z,0.70
2023-02-01T17:36:40.456Z,1.33
2023-02-01T17:41:45.704Z,1.50
2023-02-01T17:46:53.377Z,1.53
2023-02-01T17:51:59.145Z,1.70
2023-02-01T17:57:03.943Z,1.23
2023-02-01T18:02:21.478Z,1.23
2023-02-01T18:07:25.519Z,1.20
2023-02-01T18:12:29.906Z,2.17
2023-02-01T18:17:36.699Z,2.07
2023-02-01T18:22:41.149Z,1.40
2023-02-01T18:27:46.324Z,1.27
2023-02-01T18:32:52.598Z,1.63
2023-02-01T18:37:59.053Z,0.93
2023-02-01T18:43:06.150Z,1.50
2023-02-01T18:48:13.764Z,2.07
2023-02-01T18:53:21.764Z,1.70
2023-02-01T18:58:28.817Z,0.80
2023-02-01T19:03:40.441Z,1.57
2023-02-01T19:08:51.930Z,0.90
2023-02-01T19:13:56.909Z,1.13
2023-02-01T19:19:03.687Z,1.07
2023-02-01T19:24:10.013Z,1.30
2023-02-01T19:29:14.783Z,0.70
2023-02-01T19:34:26.177Z,2.57
2023-02-01T19:39:31.223Z,1.60
2023-02-01T19:44:37.102Z,1.30
2023-02-01T19:49:45.141Z,0.77
2023-02-01T19:54:51.683Z,0.80
2023-02-01T19:59:57.045Z,0.77
2023-02-01T20:05:02.174Z,2.07
2023-02-01T20:10:10.646Z,2.23
2023-02-01T20:15:15.684Z,0.90
2023-02-01T20:20:22.266Z,1.27
2023-02-01T20:25:28.080Z,1.40
2023-02-01T20:30:34.818Z,1.03
2023-02-01T20:35:45.528Z,1.10
2023-02-01T20:40:50.243Z,0.70
2023-02-01T20:45:54.850Z,1.50
2023-02-01T20:51:02.511Z,1.00
2023-02-01T20:56:08.375Z,1.60
2023-02-01T21:01:14.269Z,1.83
2023-02-01T21:06:22.667Z,0.57
2023-02-01T21:11:27.071Z,1.77
2023-02-01T21:16:32.609Z,1.70
2023-02-01T21:21:39.046Z,2.00
2023-02-01T21:26:44.696Z,2.80
2023-02-01T21:31:48.653Z,1.13
2023-02-01T21:36:53.998Z,3.20
2023-02-01T21:42:17.733Z,1.43
2023-02-01T21:47:26.143Z,1.40
2023-02-01T21:52:33.235Z,1.00
2023-02-01T21:57:36.766Z,1.40
2023-02-01T22:02:40.204Z,1.10
2023-02-01T22:07:45.060Z,1.07
2023-02-01T22:12:48.507Z,1.07
2023-02-01T22:17:52.050Z,0.77
2023-02-01T22:22:57.404Z,1.23
2023-02-01T22:28:33.105Z,1.03
2023-02-01T22:33:24.345Z,1.43
2023-02-01T22:38:31.896Z,1.27
2023-02-01T22:43:35.911Z,0.60
2023-02-01T22:48:41.908Z,1.40
2023-02-01T22:53:47.174Z,3.20
2023-02-01T22:58:50.609Z,2.40
2023-02-01T23:03:58.702Z,1.43
2023-02-01T23:09:06.361Z,1.00
2023-02-01T23:14:10.455Z,0.87
2023-02-01T23:19:13.902Z,0.60
2023-02-01T23:24:18.720Z,0.70
2023-02-01T23:29:22.072Z,1.80
2023-02-01T23:34:25.592Z,1.43
2023-02-01T23:39:30.490Z,1.00
2023-02-01T23:44:33.991Z,1.03
2023-02-01T23:49:37.333Z,0.73
2023-02-01T23:54:42.084Z,0.63
2023-02-01T23:59:48.746Z,1.57
